Latest Weather Observations for Melbourne (Olympic Park)

IDV60801

Issued at 12:05 pm EST Wednesday 3 September 2014 (issued every 30 minutes, with the page automatically refreshed every 10 minutes)

About weather observations | Map of weather stations | Latest weather observations for VIC | Other Formats
Station Details ID: 086338 Name: MELBOURNE (OLYMPIC PARK) Lat: -37.83 Lon: 144.98 Height: 7.53 m
Data from the previous 72 hours. | See also: Recent months at Melbourne (Olympic Park)
Date/Time
EST
Temp
°C
App
Temp
°C
Dew
Point
Rel
Hum
%
Delta-T
°C
Wind Press
QNH
hPa
Press
MSL
hPa
Rain
since 9 am
mm
Dir
 
Spd
km/h
Gust
km/h
Spd
kts
Gust
kts
03/12:00pm 12.4 9.2 5.1 61 3.4 SSW 11 19 6 10 1021.9 1021.9 0.0
03/11:30am 12.2 9.4 5.1 62 3.3 SSW 9 17 5 9 1022.2 1022.2 0.0
03/11:00am 12.4 9.8 4.1 57 3.7 SSE 7 15 4 8 1022.4 1022.4 0.0
03/10:30am 12.3 8.9 4.0 57 3.7 S 11 20 6 11 1022.6 1022.6 0.0
03/10:00am 12.3 8.3 3.0 53 4.1 SSE 13 20 7 11 1023.1 1023.1 0.0
03/09:30am 12.2 9.2 3.9 57 3.7 SSE 9 15 5 8 1023.4 1023.4 0.0
03/09:00am 12.0 9.7 4.7 61 3.3 SE 6 11 3 6 1023.6 1023.6 0.2
03/08:30am 10.5 9.6 6.1 74 2.0 CALM 0 0 0 0 1023.5 1023.5 0.2
03/08:00am 10.0 9.1 6.2 77 1.8 CALM 0 0 0 0 1023.4 1023.4 0.2
03/07:30am 9.4 8.5 5.9 79 1.6 N 0 0 0 0 1023.1 1023.1 0.2
03/07:00am 8.9 6.2 5.5 79 1.5 W 9 15 5 8 1022.9 1022.9 0.2
03/06:30am 9.0 6.2 5.0 76 1.8 W 9 15 5 8 1022.7 1022.7 0.2
03/06:00am 8.7 5.9 5.1 78 1.6 W 9 13 5 7 1022.6 1022.6 0.2
03/05:30am 8.5 6.1 5.1 79 1.5 W 7 13 4 7 1022.5 1022.5 0.2
03/05:00am 8.4 6.0 5.2 80 1.4 WSW 7 11 4 6 1022.6 1022.6 0.2
03/04:30am 8.0 5.3 5.6 85 1.1 W 9 11 5 6 1022.6 1022.6 0.2
03/04:00am 8.1 5.8 5.6 84 1.1 WNW 7 13 4 7 1022.7 1022.7 0.2
03/03:30am 8.1 5.8 5.7 85 1.1 WNW 7 11 4 6 1022.7 1022.7 0.2
03/03:00am 8.0 5.7 5.6 85 1.1 W 7 15 4 8 1022.7 1022.7 0.2
03/02:30am 8.5 6.8 5.8 83 1.2 W 4 7 2 4 1022.7 1022.7 0.2
03/02:00am 9.0 6.4 6.1 82 1.3 W 9 17 5 9 1023.1 1023.1 0.2
03/01:30am 9.4 7.0 6.8 84 1.2 W 9 17 5 9 1023.2 1023.2 0.2
03/01:00am 9.1 7.2 6.5 84 1.2 W 6 9 3 5 1023.0 1023.0 0.2
03/12:30am 9.5 6.9 6.2 80 1.5 W 9 15 5 8 1022.9 1022.9 0.2
03/12:00am 10.9 8.0 6.5 74 2.1 SSW 11 22 6 12 1022.7 1022.7 0.2
 
Date/Time
EST
Temp
°C
App
Temp
°C
Dew
Point
Rel
Hum
%
Delta-T
°C
Wind Press
QNH
hPa
Press
MSL
hPa
Rain
since 9 am
mm
Dir
 
Spd
km/h
Gust
km/h
Spd
kts
Gust
kts
02/11:30pm 10.1 8.0 6.8 80 1.6 WSW 7 19 4 10 1022.9 1022.9 0.2
02/11:00pm 10.0 7.0 6.2 77 1.8 W 11 26 6 14 1023.1 1023.1 0.2
02/10:30pm 11.1 8.7 6.8 75 2.0 SSW 9 20 5 11 1023.1 1023.1 0.2
02/10:00pm 10.9 8.0 6.3 73 2.1 S 11 24 6 13 1023.1 1023.1 0.2
02/09:30pm 11.2 8.2 6.1 71 2.4 SSW 11 22 6 12 1023.0 1023.0 0.2
02/09:00pm 11.1 7.8 6.5 73 2.2 SSW 13 26 7 14 1023.0 1023.0 0.2
02/08:30pm 11.3 8.1 6.8 74 2.1 SSW 13 24 7 13 1023.0 1023.0 0.2
02/08:00pm 10.9 8.8 6.6 75 2.0 SSW 7 13 4 7 1022.9 1022.9 0.2
02/07:30pm 10.8 8.3 6.6 75 2.0 SSW 9 20 5 11 1022.6 1022.6 0.2
02/07:00pm 10.8 7.5 6.6 75 2.0 SSW 13 28 7 15 1022.3 1022.3 0.2
02/06:30pm 11.6 8.9 5.7 67 2.7 S 9 17 5 9 1022.0 1022.0 0.2
02/06:00pm 11.5 7.9 4.9 64 3.0 SSE 13 20 7 11 1021.7 1021.7 0.2
02/05:30pm 11.7 7.3 4.7 62 3.2 SSE 17 30 9 16 1021.2 1021.2 0.2
02/05:00pm 12.2 8.5 4.4 59 3.5 S 13 24 7 13 1020.9 1020.9 0.2
02/04:30pm 12.3 7.7 3.5 55 3.9 S 17 28 9 15 1020.5 1020.5 0.2
02/04:00pm 12.7 8.0 3.1 52 4.2 S 17 32 9 17 1020.3 1020.3 0.2
02/03:30pm 13.0 8.1 4.2 55 4.0 S 19 37 10 20 1020.1 1020.1 0.2
02/03:00pm 12.9 8.5 4.6 57 3.8 S 17 35 9 19 1019.9 1019.9 0.2
02/02:30pm 13.2 8.2 4.4 55 4.0 S 20 32 11 17 1019.7 1019.7 0.2
02/02:00pm 13.8 9.4 4.7 54 4.2 S 17 32 9 17 1019.5 1019.5 0.2
02/01:30pm 14.1 9.1 3.8 50 4.7 S 19 44 10 24 1019.3 1019.3 0.2
02/01:00pm 13.6 8.6 4.7 55 4.1 S 20 32 11 17 1019.2 1019.2 0.2
02/12:30pm 13.6 8.4 5.7 59 3.7 SSW 22 35 12 19 1019.2 1019.2 0.2
02/12:00pm 13.2 7.9 4.9 57 3.8 SSW 22 43 12 23 1018.9 1018.9 0.2
02/11:30am 13.2 7.8 4.6 56 3.9 S 22 37 12 20 1018.8 1018.8 0.2
02/11:00am 13.2 8.8 7.4 68 2.8 S 20 35 11 19 1018.9 1018.9 0.2
02/10:30am 13.1 10.6 8.0 71 2.5 SSW 11 26 6 14 1018.7 1018.7 0.2
02/10:00am 11.2 8.5 8.9 86 1.1 SW 13 26 7 14 1018.5 1018.5 0.2
02/09:30am 10.9 8.0 8.1 83 1.4 SW 13 24 7 13 1018.4 1018.4 0.0
02/09:00am 11.0 9.1 7.7 80 1.6 W 7 17 4 9 1017.9 1017.9 10.8
02/08:30am 10.9 9.0 7.6 80 1.6 W 7 20 4 11 1017.7 1017.7 10.8
02/08:00am 9.6 7.7 7.4 86 1.0 W 7 15 4 8 1017.2 1017.2 10.8
02/07:30am 9.1 6.7 7.2 88 0.9 W 9 19 5 10 1017.0 1017.0 10.8
02/07:00am 8.7 6.7 7.2 90 0.7 W 7 17 4 9 1016.6 1016.6 10.8
02/06:30am 8.9 6.2 7.5 91 0.7 W 11 17 6 9 1016.0 1016.0 10.8
02/06:00am 9.1 7.4 8.2 94 0.4 W 7 11 4 6 1015.6 1015.6 10.8
02/05:30am 8.9 7.1 7.8 93 0.5 WNW 7 13 4 7 1015.3 1015.3 10.8
02/05:00am 8.9 6.3 7.7 92 0.6 W 11 17 6 9 1015.0 1015.0 10.6
02/04:30am 8.9 6.3 7.8 93 0.5 W 11 19 6 10 1014.7 1014.7 10.6
02/04:00am 9.2 7.4 8.1 93 0.5 SW 7 15 4 8 1014.2 1014.2 10.6
02/03:30am 9.4 7.7 8.2 92 0.6 SW 7 15 4 8 1014.3 1014.3 10.6
02/03:00am 9.3 7.2 8.1 92 0.6 W 9 15 5 8 1013.9 1013.9 10.4
02/02:30am 9.3 7.6 8.2 93 0.5 W 7 15 4 8 1013.6 1013.6 10.4
02/02:00am 9.6 7.6 8.5 93 0.5 W 9 17 5 9 1013.7 1013.7 10.2
02/01:30am 10.1 7.9 8.0 87 1.0 S 9 15 5 8 1013.9 1013.9 9.8
02/01:00am 10.0 8.1 7.4 84 1.2 WSW 7 17 4 9 1013.4 1013.4 9.8
02/12:30am 10.1 7.8 7.5 84 1.2 WSW 9 15 5 8 1013.3 1013.3 9.8
02/12:00am 10.3 8.1 7.9 85 1.2 W 9 20 5 11 1013.2 1013.2 9.8
 
Date/Time
EST
Temp
°C
App
Temp
°C
Dew
Point
Rel
Hum
%
Delta-T
°C
Wind Press
QNH
hPa
Press
MSL
hPa
Rain
since 9 am
mm
Dir
 
Spd
km/h
Gust
km/h
Spd
kts
Gust
kts
01/11:30pm 10.5 9.0 8.3 86 1.1 W 6 13 3 7 1012.9 1012.9 9.8
01/11:00pm 10.6 9.0 8.2 85 1.2 W 6 11 3 6 1012.8 1012.8 9.8
01/10:30pm 10.6 9.4 8.2 85 1.2 W 4 11 2 6 1012.6 1012.6 9.8
01/10:00pm 10.7 9.5 8.1 84 1.3 W 4 11 2 6 1012.7 1012.7 9.8
01/09:30pm 10.5 9.4 8.3 86 1.1 WNW 4 9 2 5 1012.5 1012.5 9.8
01/09:00pm 10.4 8.7 8.2 86 1.1 NW 7 11 4 6 1012.4 1012.4 9.8
01/08:30pm 10.5 8.8 8.3 86 1.1 WNW 7 13 4 7 1012.1 1012.1 9.8
01/08:00pm 10.5 9.0 8.4 87 1.0 W 6 11 3 6 1011.8 1011.8 9.8
01/07:30pm 10.1 9.1 8.9 92 0.6 W 4 11 2 6 1011.3 1011.3 9.8
01/07:00pm 9.9 8.5 8.8 93 0.5 W 6 15 3 8 1011.2 1011.2 9.8
01/06:30pm 10.9 11.0 10.1 95 0.4 CALM 0 6 0 3 1010.9 1010.9 8.0
01/06:00pm 10.7 10.3 9.9 95 0.4 SW 2 7 1 4 1010.3 1010.3 7.8
01/05:30pm 11.1 7.7 9.2 88 0.9 S 17 28 9 15 1010.0 1010.0 6.8
01/05:00pm 12.3 11.2 9.9 85 1.2 WNW 6 13 3 7 1009.4 1009.4 6.0
01/04:30pm 12.1 10.8 10.0 87 1.1 WNW 7 11 4 6 1009.2 1009.2 6.0
01/04:00pm 12.2 11.9 10.1 87 1.1 WSW 2 9 1 5 1008.8 1008.8 5.8
01/03:30pm 12.0 11.3 10.1 88 1.0 WSW 4 11 2 6 1008.9 1008.9 5.6
01/03:00pm 11.9 11.2 10.1 89 0.9 SW 4 9 2 5 1008.8 1008.8 5.2
01/02:30pm 11.9 9.5 10.0 88 1.0 WSW 13 24 7 13 1008.8 1008.8 5.0
01/02:00pm 13.3 12.3 11.0 86 1.2 N 7 9 4 5 1008.1 1008.1 2.0
01/01:30pm 13.1 11.6 10.5 84 1.4 N 9 13 5 7 1008.6 1008.6 2.0
01/01:00pm 13.2 11.6 10.2 82 1.6 N 9 15 5 8 1008.9 1008.9 1.8
01/12:30pm 13.3 11.7 10.3 82 1.6 N 9 17 5 9 1008.7 1008.7 1.6
01/12:00pm 13.2 11.4 9.3 77 2.0 NNW 9 19 5 10 1009.0 1009.0 1.4
01/11:30am 12.9 11.2 8.2 73 2.3 N 7 19 4 10 1008.9 1008.9 1.0
01/11:00am 14.7 10.9 6.0 56 4.2 NNW 15 20 8 11 1009.1 1009.1 0.0
01/10:30am 15.4 12.1 4.8 49 5.0 NNW 11 19 6 10 1009.4 1009.4 0.0
01/10:00am 15.2 10.3 4.9 50 4.8 NNW 20 32 11 17 1009.2 1009.2 0.0
01/09:30am 15.1 9.7 4.5 49 4.9 NNW 22 35 12 19 1009.4 1009.4 0.0
01/09:00am 15.2 10.8 4.6 49 5.0 N 17 26 9 14 1009.0 1009.0 0.0
01/08:30am 15.2 10.3 4.3 48 5.1 N 19 35 10 19 1008.7 1008.7 0.0
01/08:00am 15.6 11.1 4.3 47 5.3 N 17 26 9 14 1008.8 1008.8 0.0
01/07:30am 15.6 9.7 4.0 46 5.4 N 24 37 13 20 1008.2 1008.2 0.0
01/07:00am 15.7 10.6 4.1 46 5.4 N 20 33 11 18 1008.3 1008.3 0.0
01/06:30am 15.7 10.6 4.1 46 5.4 N 20 37 11 20 1008.7 1008.7 0.0
01/06:00am 16.1 9.8 3.9 44 5.7 N 26 50 14 27 1008.6 1008.6 0.0
01/05:30am 16.7 11.5 3.7 42 6.0 NNW 20 32 11 17 1008.7 1008.7 0.0
01/05:00am 17.1 12.8 3.4 40 6.3 N 15 24 8 13 1008.0 1008.0 0.0
01/04:30am 17.4 12.7 3.3 39 6.5 N 17 28 9 15 1007.7 1007.7 0.0
01/04:00am 17.0 11.8 3.7 41 6.2 N 20 32 11 17 1007.9 1007.9 0.0
01/03:30am 16.7 11.6 4.1 43 5.9 N 20 37 11 20 1008.6 1008.6 0.0
01/03:00am 17.0 11.9 4.3 43 6.0 N 20 30 11 16 1008.9 1008.9 0.0
01/02:30am 18.0 13.1 3.9 39 6.6 N 19 32 10 17 1009.0 1009.0 0.0
01/02:00am 18.3 12.8 3.8 38 6.8 N 22 37 12 20 1009.3 1009.3 0.0
01/01:30am 17.7 12.7 4.6 42 6.2 N 20 33 11 18 1009.9 1009.9 0.0
01/01:00am 17.4 12.7 5.0 44 5.9 N 19 30 10 16 1010.4 1010.4 0.0
01/12:30am 17.6 12.9 5.2 44 6.0 N 19 32 10 17 1010.3 1010.3 0.0
01/12:00am 18.2 13.9 5.1 42 6.3 N 17 28 9 15 1010.3 1010.3 0.0
 
Date/Time
EST
Temp
°C
App
Temp
°C
Dew
Point
Rel
Hum
%
Delta-T
°C
Wind Press
QNH
hPa
Press
MSL
hPa
Rain
since 9 am
mm
Dir
 
Spd
km/h
Gust
km/h
Spd
kts
Gust
kts
31/11:30pm 17.5 13.8 6.1 47 5.6 NNE 15 28 8 15 1010.0 1010.0 0.0
31/11:00pm 17.4 14.1 6.3 48 5.5 NNE 13 20 7 11 1010.4 1010.4 0.0
31/10:30pm 17.2 14.3 6.7 50 5.2 NNE 11 19 6 10 1011.2 1011.2 0.0
31/10:00pm 17.2 14.8 7.0 51 5.1 NNE 9 15 5 8 1012.0 1012.0 0.0
31/09:30pm 17.3 14.9 7.1 51 5.1 N 9 15 5 8 1012.6 1012.6 0.0
31/09:00pm 17.4 14.3 7.2 51 5.1 NNE 13 20 7 11 1012.5 1012.5 0.0
31/08:30pm 17.4 13.9 7.2 51 5.1 NNE 15 24 8 13 1012.8 1012.8 0.0
31/08:00pm 17.5 14.0 7.3 51 5.1 NNE 15 20 8 11 1013.1 1013.1 0.0
31/07:30pm 17.6 14.5 7.4 51 5.1 NNE 13 17 7 9 1013.2 1013.2 0.0
31/07:00pm 17.8 14.7 7.2 50 5.3 NNE 13 19 7 10 1013.2 1013.2 0.0
31/06:30pm 18.0 14.9 7.1 49 5.5 NNE 13 20 7 11 1013.5 1013.5 0.0
31/06:00pm 18.4 15.2 6.9 47 5.8 NNE 13 19 7 10 1013.8 1013.8 0.0
31/05:30pm 18.8 14.9 6.9 46 6.0 N 17 28 9 15 1013.9 1013.9 0.0
31/05:00pm 19.4 15.4 6.5 43 6.4 N 17 26 9 14 1013.8 1013.8 0.0
31/04:30pm 19.5 15.0 6.3 42 6.6 N 19 30 10 16 1013.6 1013.6 0.0
31/04:00pm 19.7 14.7 6.4 42 6.6 N 22 37 12 20 1013.6 1013.6 0.0
31/03:30pm 19.9 14.6 6.6 42 6.7 N 24 35 13 19 1013.9 1013.9 0.0
31/03:00pm 20.5 14.9 7.2 42 6.8 N 26 37 14 20 1014.5 1014.5 0.0
31/02:30pm 20.5 15.1 6.4 40 7.1 N 24 43 13 23 1014.8 1014.8 0.0
31/02:00pm 20.1 14.3 6.4 41 6.9 N 26 39 14 21 1015.0 1015.0 0.0
31/01:30pm 20.3 14.8 5.9 39 7.2 N 24 43 13 23 1015.3 1015.3 0.0
31/01:00pm 20.8 15.5 6.7 40 7.1 N 24 37 13 20 1015.7 1015.7 0.0
31/12:30pm 20.6 15.3 6.9 41 7.0 N 24 39 13 21 1016.1 1016.1 0.0

Other Formats:

Comma delimited format used in spreadsheet applications
http://www.bom.gov.au/fwo/IDV60801/IDV60801.95936.axf

JavaScript Object Notation format (JSON) in row-major order
http://www.bom.gov.au/fwo/IDV60801/IDV60801.95936.json